METAR Data

Data at: 2102 UTC 01 Dec 2021

METAR for:KMTP (Montauk Arpt, NY, US)
Text:KMTP 012054Z AUTO 27007KT 07/M01 A3014 RMK AO1 SLP206 T00721011 50002
Temperature: 7.2°C ( 45°F)
Dewpoint: -1.1°C ( 30°F) [RH = 56%]
Pressure (altimeter):30.14 inches Hg (1020.7 mb) [Sea level pressure: 1020.6 mb]
Winds:from the W (270 degrees) at 8 MPH (7 knots; 3.6 m/s)
QC Flag:automated observation with no human augmentation